AEE317 LGKF-LOWW
Flight info
| Callsign | AEE317 |
|---|---|
| Flight time | N/A |
| Altitude | 38000 |
| Route | LATAN DCT DAMIC DCT AIOSA DCT RUDIK DCT ZAG DCT OBUTI OBUTI2W |
| Aircraft | CRJ7/M-SDFGIRWY/S |
Departure
| Time | 2026-04-28 10:35 |
|---|---|
| Airport | Kefallinia Airport (LGKF) |
Arrival
| Time | N/A |
|---|---|
| Airport | Vienna International Airport (LOWW) |
| Time | Latitude | Longitude | Altitude | Speed | Heading |
|---|---|---|---|---|---|
| 2026-04-28 10:00 | 38.11907 | 20.50406 | 64 ft | 0 kts | 56° |
| 2026-04-28 10:25 | 38.11898 | 20.50389 | 59 ft | 4 kts | 51° |
| 2026-04-28 10:25 | 38.11880 | 20.50365 | 66 ft | 4 kts | 39° |
| 2026-04-28 10:26 | 38.11857 | 20.50349 | 66 ft | 4 kts | 12° |
| 2026-04-28 10:26 | 38.11838 | 20.50350 | 64 ft | 2 kts | 341° |
| 2026-04-28 10:26 | 38.11853 | 20.50338 | 66 ft | 4 kts | 322° |
| 2026-04-28 10:26 | 38.11858 | 20.50334 | 66 ft | 0 kts | 326° |
| 2026-04-28 10:28 | 38.11859 | 20.50333 | 66 ft | 1 kts | 326° |
| 2026-04-28 10:29 | 38.11878 | 20.50317 | 66 ft | 0 kts | 326° |
| 2026-04-28 10:29 | 38.11883 | 20.50311 | 66 ft | 3 kts | 321° |
| 2026-04-28 10:29 | 38.11893 | 20.50298 | 66 ft | 2 kts | 301° |
| 2026-04-28 10:29 | 38.11897 | 20.50274 | 63 ft | 4 kts | 270° |
| 2026-04-28 10:30 | 38.11894 | 20.50237 | 66 ft | 6 kts | 264° |
| 2026-04-28 10:30 | 38.11890 | 20.50179 | 62 ft | 7 kts | 268° |
| 2026-04-28 10:30 | 38.11914 | 20.50122 | 62 ft | 10 kts | 323° |
| 2026-04-28 10:30 | 38.11979 | 20.50066 | 64 ft | 12 kts | 326° |
| 2026-04-28 10:31 | 38.12054 | 20.50002 | 64 ft | 15 kts | 326° |
| 2026-04-28 10:31 | 38.12150 | 20.49921 | 64 ft | 18 kts | 327° |
| 2026-04-28 10:31 | 38.12270 | 20.49821 | 55 ft | 24 kts | 327° |
| 2026-04-28 10:31 | 38.12421 | 20.49695 | 55 ft | 28 kts | 326° |
| 2026-04-28 10:32 | 38.12593 | 20.49548 | 49 ft | 30 kts | 326° |
| 2026-04-28 10:32 | 38.12769 | 20.49402 | 42 ft | 29 kts | 327° |
| 2026-04-28 10:32 | 38.12882 | 20.49311 | 38 ft | 9 kts | 340° |
| 2026-04-28 10:32 | 38.12894 | 20.49303 | 38 ft | 0 kts | 285° |
| 2026-04-28 10:33 | 38.12890 | 20.49291 | 38 ft | 2 kts | 218° |
| 2026-04-28 10:33 | 38.12876 | 20.49292 | 38 ft | 3 kts | 141° |
| 2026-04-28 10:33 | 38.12837 | 20.49344 | 40 ft | 0 kts | 146° |
| 2026-04-28 10:34 | 38.12789 | 20.49386 | 42 ft | 29 kts | 145° |
| 2026-04-28 10:34 | 38.12389 | 20.49721 | 57 ft | 108 kts | 146° |
| 2026-04-28 10:34 | 38.11579 | 20.50408 | 116 ft | 164 kts | 147° |
| 2026-04-28 10:35 | 38.10644 | 20.51158 | 1061 ft | 153 kts | 151° |
| 2026-04-28 10:35 | 38.09724 | 20.51845 | 1953 ft | 154 kts | 149° |
| 2026-04-28 10:35 | 38.08811 | 20.52589 | 2727 ft | 159 kts | 146° |
| 2026-04-28 10:35 | 38.07890 | 20.53428 | 3408 ft | 168 kts | 143° |
| 2026-04-28 10:36 | 38.06946 | 20.54370 | 3968 ft | 187 kts | 142° |
| 2026-04-28 10:36 | 38.05863 | 20.55452 | 4525 ft | 208 kts | 144° |
| 2026-04-28 10:36 | 38.04630 | 20.56543 | 5300 ft | 223 kts | 146° |
| 2026-04-28 10:36 | 38.03314 | 20.57674 | 6241 ft | 231 kts | 147° |
| 2026-04-28 10:37 | 38.01974 | 20.58782 | 7200 ft | 235 kts | 148° |
| 2026-04-28 10:37 | 38.00551 | 20.59894 | 8176 ft | 239 kts | 150° |
| 2026-04-28 10:37 | 37.99103 | 20.60965 | 9122 ft | 242 kts | 150° |
| 2026-04-28 10:37 | 37.97610 | 20.61966 | 10049 ft | 245 kts | 160° |
| 2026-04-28 10:38 | 37.95924 | 20.62193 | 10763 ft | 248 kts | 192° |
| 2026-04-28 10:38 | 37.94375 | 20.61261 | 11358 ft | 250 kts | 223° |
| 2026-04-28 10:38 | 37.93418 | 20.59452 | 11963 ft | 250 kts | 254° |
| 2026-04-28 10:38 | 37.93323 | 20.57275 | 12549 ft | 253 kts | 283° |
| 2026-04-28 10:39 | 37.94113 | 20.55202 | 12627 ft | 277 kts | 312° |
| 2026-04-28 10:39 | 37.95729 | 20.53714 | 12728 ft | 301 kts | 338° |
| 2026-04-28 10:39 | 37.97810 | 20.52966 | 12957 ft | 320 kts | 341° |
| 2026-04-28 10:39 | 37.99769 | 20.51497 | 13197 ft | 337 kts | 320° |
| 2026-04-28 10:40 | 38.01521 | 20.49450 | 13679 ft | 346 kts | 316° |
| 2026-04-28 10:40 | 38.03236 | 20.47286 | 14324 ft | 349 kts | 314° |
| 2026-04-28 10:40 | 38.04922 | 20.45054 | 14972 ft | 352 kts | 313° |
| 2026-04-28 10:40 | 38.06602 | 20.42784 | 15612 ft | 354 kts | 314° |
| 2026-04-28 10:41 | 38.08343 | 20.40555 | 16224 ft | 356 kts | 316° |
| 2026-04-28 10:41 | 38.10171 | 20.38422 | 16811 ft | 358 kts | 318° |
| 2026-04-28 10:41 | 38.12046 | 20.36333 | 17396 ft | 360 kts | 319° |
| 2026-04-28 10:41 | 38.13934 | 20.34234 | 17959 ft | 362 kts | 319° |
| 2026-04-28 10:42 | 38.15833 | 20.32119 | 18490 ft | 364 kts | 319° |
| 2026-04-28 10:42 | 38.17741 | 20.29990 | 18997 ft | 366 kts | 318° |
| 2026-04-28 10:42 | 38.19647 | 20.27826 | 19498 ft | 368 kts | 318° |
| 2026-04-28 10:42 | 38.21560 | 20.25645 | 19966 ft | 371 kts | 318° |
| 2026-04-28 10:43 | 38.23463 | 20.23477 | 20408 ft | 374 kts | 318° |
| 2026-04-28 10:43 | 38.25405 | 20.21257 | 20841 ft | 376 kts | 318° |
| 2026-04-28 10:43 | 38.27363 | 20.19023 | 21264 ft | 379 kts | 318° |
| 2026-04-28 10:43 | 38.29325 | 20.16778 | 21703 ft | 380 kts | 317° |
| 2026-04-28 10:44 | 38.31304 | 20.14515 | 22108 ft | 383 kts | 317° |
| 2026-04-28 10:44 | 38.33289 | 20.12243 | 22488 ft | 385 kts | 317° |
| 2026-04-28 10:44 | 38.35286 | 20.09954 | 22861 ft | 388 kts | 317° |
| 2026-04-28 10:44 | 38.37296 | 20.07643 | 23216 ft | 390 kts | 317° |
| 2026-04-28 10:45 | 38.39316 | 20.05326 | 23590 ft | 391 kts | 317° |
| 2026-04-28 10:45 | 38.41340 | 20.03000 | 23924 ft | 393 kts | 317° |
| 2026-04-28 10:45 | 38.43380 | 20.00654 | 24223 ft | 396 kts | 317° |
| 2026-04-28 10:45 | 38.45432 | 19.98293 | 24541 ft | 398 kts | 317° |
| 2026-04-28 10:46 | 38.47492 | 19.95921 | 24840 ft | 400 kts | 317° |
| 2026-04-28 10:46 | 38.49560 | 19.93537 | 25143 ft | 402 kts | 317° |
| 2026-04-28 10:46 | 38.51636 | 19.91145 | 25429 ft | 403 kts | 317° |
| 2026-04-28 10:46 | 38.53720 | 19.88735 | 25704 ft | 405 kts | 317° |
| 2026-04-28 10:47 | 38.55815 | 19.86314 | 25976 ft | 407 kts | 317° |
| 2026-04-28 10:47 | 38.57913 | 19.83888 | 26242 ft | 408 kts | 317° |
| 2026-04-28 10:47 | 38.60020 | 19.81451 | 26486 ft | 409 kts | 317° |
| 2026-04-28 10:47 | 38.62137 | 19.78997 | 26719 ft | 411 kts | 317° |
| 2026-04-28 10:48 | 38.64263 | 19.76531 | 26962 ft | 413 kts | 317° |
| 2026-04-28 10:48 | 38.66392 | 19.74063 | 27194 ft | 414 kts | 317° |
| 2026-04-28 10:48 | 38.68530 | 19.71579 | 27425 ft | 416 kts | 317° |
| 2026-04-28 10:48 | 38.70067 | 19.69792 | 27590 ft | 417 kts | 317° |
| 2026-04-28 10:49 | 38.72134 | 19.67391 | 27805 ft | 418 kts | 317° |
| 2026-04-28 10:49 | 38.74129 | 19.65072 | 27997 ft | 419 kts | 317° |
| 2026-04-28 10:49 | 38.76288 | 19.62546 | 28202 ft | 420 kts | 317° |
| 2026-04-28 10:49 | 38.78454 | 19.60021 | 28398 ft | 422 kts | 317° |
| 2026-04-28 10:50 | 38.80625 | 19.57494 | 28587 ft | 423 kts | 317° |
| 2026-04-28 10:50 | 38.82809 | 19.54943 | 28797 ft | 423 kts | 317° |
| 2026-04-28 10:50 | 38.84982 | 19.52404 | 28985 ft | 424 kts | 317° |
| 2026-04-28 10:50 | 38.87165 | 19.49852 | 29157 ft | 425 kts | 317° |
| 2026-04-28 10:51 | 38.89362 | 19.47274 | 29336 ft | 427 kts | 317° |
| 2026-04-28 10:51 | 38.91541 | 19.44721 | 29489 ft | 428 kts | 317° |
| 2026-04-28 10:51 | 38.93753 | 19.42130 | 29641 ft | 429 kts | 317° |
| 2026-04-28 10:51 | 38.95940 | 19.39526 | 29787 ft | 430 kts | 317° |
| 2026-04-28 10:52 | 38.98117 | 19.36918 | 29935 ft | 430 kts | 317° |
| 2026-04-28 10:52 | 39.00315 | 19.34284 | 30075 ft | 431 kts | 317° |
| 2026-04-28 10:52 | 39.02532 | 19.31671 | 30211 ft | 432 kts | 317° |
| 2026-04-28 10:52 | 39.04749 | 19.29058 | 30334 ft | 433 kts | 317° |
| 2026-04-28 10:53 | 39.06944 | 19.26465 | 30431 ft | 435 kts | 317° |
| 2026-04-28 10:53 | 39.09174 | 19.23834 | 30553 ft | 436 kts | 317° |
| 2026-04-28 10:53 | 39.11423 | 19.21174 | 30669 ft | 437 kts | 317° |
| 2026-04-28 10:53 | 39.13648 | 19.18551 | 30784 ft | 437 kts | 317° |
| 2026-04-28 10:54 | 39.15890 | 19.15895 | 30898 ft | 438 kts | 317° |
| 2026-04-28 10:54 | 39.18138 | 19.13227 | 31007 ft | 439 kts | 317° |
| 2026-04-28 10:54 | 39.20391 | 19.10571 | 31111 ft | 440 kts | 317° |
| 2026-04-28 10:54 | 39.22633 | 19.07903 | 31213 ft | 440 kts | 317° |
| 2026-04-28 10:55 | 39.24871 | 19.05242 | 31315 ft | 441 kts | 317° |
| 2026-04-28 10:55 | 39.29487 | 18.99956 | 31483 ft | 443 kts | 325° |
| 2026-04-28 10:56 | 39.34999 | 18.96331 | 31643 ft | 445 kts | 336° |
| 2026-04-28 10:56 | 39.40693 | 18.93165 | 31707 ft | 448 kts | 334° |
| 2026-04-28 10:57 | 39.46308 | 18.89692 | 31861 ft | 449 kts | 334° |
| 2026-04-28 10:57 | 39.51953 | 18.86242 | 32052 ft | 449 kts | 334° |
| 2026-04-28 10:58 | 39.57599 | 18.82777 | 32222 ft | 449 kts | 334° |
| 2026-04-28 10:58 | 39.60430 | 18.81036 | 32324 ft | 448 kts | 334° |
| 2026-04-28 10:58 | 39.63245 | 18.79310 | 32395 ft | 448 kts | 334° |
| 2026-04-28 10:58 | 39.66036 | 18.77587 | 32497 ft | 448 kts | 334° |
| 2026-04-28 10:59 | 39.68863 | 18.75845 | 32562 ft | 448 kts | 334° |